Terminal Aerodrome Forecast
Issued by NWS Jackson, MS

Home | Current Version | Previous Version | Text Only | Print | Product List | Glossary On
Versions: 1 2 3 4 5 6 7 8 9 10 11 12
404
FTUS44 KJAN 201720
TAFHBG
TAF
KHBG 201720Z 2018/2118 15007KT P6SM SCT035 BKN070
     FM211100 13003KT 4SM BR SCT070 BKN250
     FM211400 13003KT P6SM FEW050 SCT070 BKN250=

USA.gov is the U.S. government's official web portal to all federal, state and local government web resources and services.